Time;durP1;ratioP1;P1;durP2;ratioP2;P2;SDS_P1;SDS_P2;PMS_P1;PMS_P2;Temp;Humidity;BMP_temperature;BMP_pressure;BME280_temperature;BME280_humidity;BME280_pressure;Samples;Min_cycle;Max_cycle;Signal;HPM_P1;HPM_P2
2023/03/02 00:01:24;;;;;;;;;;;;;;;;;;5018750;28;20234;-18
2023/03/02 00:03:50;;;;;;;;;;;;;;;;;;5017215;28;20272;-18
2023/03/02 00:06:16;;;;;;;;;;;;;;;;;;5018296;28;19917;-19
2023/03/02 00:08:42;;;;;;;;;;;;;;;;;;5018571;28;19910;-19
2023/03/02 00:11:08;;;;;;;;;;;;;;;;;;5018328;28;19917;-18
2023/03/02 00:13:35;;;;;;;;;;;;;;;;;;5018195;28;19914;-18
2023/03/02 00:16:00;;;;;;;;;;;;;;;;;;5018148;28;19909;-19
2023/03/02 00:18:26;;;;;;;;;;;;;;;;;;5018432;28;19917;-19
2023/03/02 00:20:52;;;;;;;;;;;;;;;;;;5018365;28;19938;-19
2023/03/02 00:23:18;;;;;;;;;;;;;;;;;;5018246;28;19909;-19
2023/03/02 00:25:44;;;;;;;;;;;;;;;;;;5018048;28;19963;-18
2023/03/02 00:28:10;;;;;;;;;;;;;;;;;;5018538;28;20325;-18
2023/03/02 00:30:36;;;;;;;;;;;;;;;;;;5016959;28;19909;-18
2023/03/02 00:33:02;;;;;;;;;;;;;;;;;;5017839;28;19910;-19
2023/03/02 00:35:28;;;;;;;;;;;;;;;;;;5018332;28;20019;-18
2023/03/02 00:37:54;;;;;;;;;;;;;;;;;;5017747;28;20272;-18
2023/03/02 00:40:20;;;;;;;;;;;;;;;;;;5017805;28;20344;-18
2023/03/02 00:42:46;;;;;;;;;;;;;;;;;;5017884;28;19909;-19
2023/03/02 00:45:12;;;;;;;;;;;;;;;;;;5017636;28;19936;-19
2023/03/02 00:47:38;;;;;;;;;;;;;;;;;;5017618;28;19945;-19
2023/03/02 00:50:04;;;;;;;;;;;;;;;;;;5017553;28;19988;-19
2023/03/02 00:52:30;;;;;;;;;;;;;;;;;;5017051;28;19909;-19
2023/03/02 00:54:56;;;;;;;;;;;;;;;;;;5017417;28;20017;-18
2023/03/02 00:57:22;;;;;;;;;;;;;;;;;;5017468;28;19909;-19
2023/03/02 00:59:48;;;;;;;;;;;;;;;;;;5017882;28;20321;-19
2023/03/02 01:02:14;;;;;;;;;;;;;;;;;;5017332;28;19910;-19
2023/03/02 01:04:40;;;;;;;;;;;;;;;;;;5017108;28;19929;-18
2023/03/02 01:07:06;;;;;;;;;;;;;;;;;;5017226;28;19909;-19
2023/03/02 01:09:32;;;;;;;;;;;;;;;;;;5017747;28;19925;-20
2023/03/02 01:11:57;;;;;;;;;;;;;;;;;;5017070;28;19959;-19
2023/03/02 01:14:23;;;;;;;;;;;;;;;;;;5017331;28;19960;-19
2023/03/02 01:16:49;;;;;;;;;;;;;;;;;;5017070;28;19913;-19
2023/03/02 01:19:16;;;;;;;;;;;;;;;;;;5017038;28;19909;-18
2023/03/02 01:21:42;;;;;;;;;;;;;;;;;;5016967;28;19928;-19
2023/03/02 01:24:08;;;;;;;;;;;;;;;;;;5017346;28;20337;-20
2023/03/02 01:26:34;;;;;;;;;;;;;;;;;;5016880;28;20256;-18
2023/03/02 01:28:59;;;;;;;;;;;;;;;;;;5016803;28;19910;-19
2023/03/02 01:31:25;;;;;;;;;;;;;;;;;;5016684;28;19909;-18
2023/03/02 01:33:51;;;;;;;;;;;;;;;;;;5016624;28;19920;-19
2023/03/02 01:36:17;;;;;;;;;;;;;;;;;;5016930;28;20325;-19
2023/03/02 01:38:43;;;;;;;;;;;;;;;;;;5016620;28;20418;-19
2023/03/02 01:41:09;;;;;;;;;;;;;;;;;;5016797;28;19933;-19
2023/03/02 01:43:35;;;;;;;;;;;;;;;;;;5016505;28;20011;-20
2023/03/02 01:46:01;;;;;;;;;;;;;;;;;;5016530;28;19909;-19
2023/03/02 01:48:27;;;;;;;;;;;;;;;;;;5016531;28;19914;-18
2023/03/02 01:50:53;;;;;;;;;;;;;;;;;;5016669;28;19910;-18
2023/03/02 01:53:19;;;;;;;;;;;;;;;;;;5016337;28;20406;-19
2023/03/02 01:55:45;;;;;;;;;;;;;;;;;;5016237;28;19913;-18
2023/03/02 01:58:11;;;;;;;;;;;;;;;;;;5016284;28;19996;-19
2023/03/02 02:00:37;;;;;;;;;;;;;;;;;;5016793;28;20418;-19
2023/03/02 02:03:07;;;;;;;;;;;;;;;;;;5015405;28;19964;-18
2023/03/02 02:05:33;;;;;;;;;;;;;;;;;;5016329;28;19910;-18
2023/03/02 02:07:59;;;;;;;;;;;;;;;;;;5016119;28;19928;-19
2023/03/02 02:10:25;;;;;;;;;;;;;;;;;;5016087;28;19909;-18
2023/03/02 02:12:51;;;;;;;;;;;;;;;;;;5015952;28;19917;-19
2023/03/02 02:15:17;;;;;;;;;;;;;;;;;;5016169;28;19928;-19
2023/03/02 02:17:43;;;;;;;;;;;;;;;;;;5015937;28;20059;-19
2023/03/02 02:20:09;;;;;;;;;;;;;;;;;;5016157;28;19952;-19
2023/03/02 02:22:35;;;;;;;;;;;;;;;;;;5016040;28;19920;-18
2023/03/02 02:25:01;;;;;;;;;;;;;;;;;;5014832;28;19957;-19
2023/03/02 02:27:28;;;;;;;;;;;;;;;;;;5016329;28;20329;-19
2023/03/02 02:29:57;;;;;;;;;;;;;;;;;;5015677;28;19914;-19
2023/03/02 02:32:23;;;;;;;;;;;;;;;;;;5014672;28;20000;-19
2023/03/02 02:34:49;;;;;;;;;;;;;;;;;;5016071;28;19913;-19
2023/03/02 02:37:15;;;;;;;;;;;;;;;;;;5015608;28;20004;-19
2023/03/02 02:39:41;;;;;;;;;;;;;;;;;;5015601;28;19917;-19
2023/03/02 02:42:07;;;;;;;;;;;;;;;;;;5014493;28;19913;-19
2023/03/02 02:44:32;;;;;;;;;;;;;;;;;;5016016;28;20325;-19
2023/03/02 02:46:58;;;;;;;;;;;;;;;;;;5015668;28;19959;-19
2023/03/02 02:49:24;;;;;;;;;;;;;;;;;;5015407;28;19964;-19
2023/03/02 02:51:50;;;;;;;;;;;;;;;;;;5015318;28;19948;-19
2023/03/02 02:54:16;;;;;;;;;;;;;;;;;;5014370;28;20012;-18
2023/03/02 02:56:42;;;;;;;;;;;;;;;;;;5015345;28;19917;-18
2023/03/02 02:59:08;;;;;;;;;;;;;;;;;;5015577;28;20347;-18
2023/03/02 03:01:34;;;;;;;;;;;;;;;;;;5015319;28;19979;-18
2023/03/02 03:04:00;;;;;;;;;;;;;;;;;;5014957;28;19921;-19
2023/03/02 03:06:27;;;;;;;;;;;;;;;;;;5015248;28;19935;-18
2023/03/02 03:08:54;;;;;;;;;;;;;;;;;;5015396;28;19910;-18
2023/03/02 03:11:23;;;;;;;;;;;;;;;;;;5015174;28;19921;-19
2023/03/02 03:13:49;;;;;;;;;;;;;;;;;;5015007;28;19956;-19
2023/03/02 03:16:15;;;;;;;;;;;;;;;;;;5015373;28;19991;-19
2023/03/02 03:18:41;;;;;;;;;;;;;;;;;;5016111;28;20237;-18
2023/03/02 03:21:07;;;;;;;;;;;;;;;;;;5015550;28;20017;-19
2023/03/02 03:23:37;;;;;;;;;;;;;;;;;;5015010;28;19960;-19
2023/03/02 03:26:02;;;;;;;;;;;;;;;;;;5014963;28;20336;-19
2023/03/02 03:28:28;;;;;;;;;;;;;;;;;;5015483;28;19909;-18
2023/03/02 03:30:55;;;;;;;;;;;;;;;;;;5014944;28;20389;-19
2023/03/02 03:33:20;;;;;;;;;;;;;;;;;;5013910;28;20044;-19
2023/03/02 03:35:46;;;;;;;;;;;;;;;;;;5015055;28;19980;-19
2023/03/02 03:38:12;;;;;;;;;;;;;;;;;;5014879;28;19920;-19
2023/03/02 03:40:38;;;;;;;;;;;;;;;;;;5014866;28;19915;-19
2023/03/02 03:43:04;;;;;;;;;;;;;;;;;;5014754;28;19909;-19
2023/03/02 03:45:30;;;;;;;;;;;;;;;;;;5015393;28;19909;-19
2023/03/02 03:47:56;;;;;;;;;;;;;;;;;;5015052;28;20306;-19
2023/03/02 03:50:22;;;;;;;;;;;;;;;;;;5014818;28;20372;-18
2023/03/02 03:52:48;;;;;;;;;;;;;;;;;;5015211;28;19976;-19
2023/03/02 03:55:14;;;;;;;;;;;;;;;;;;5014640;28;19913;-19
2023/03/02 03:57:40;;;;;;;;;;;;;;;;;;5014720;28;19953;-19
2023/03/02 04:00:06;;;;;;;;;;;;;;;;;;5014672;28;19968;-19
2023/03/02 04:02:32;;;;;;;;;;;;;;;;;;5014569;28;20347;-18
2023/03/02 04:05:05;;;;;;;;;;;;;;;;;;5013723;28;20211;-18
2023/03/02 04:07:31;;;;;;;;;;;;;;;;;;5014638;28;19913;-19
2023/03/02 04:10:02;;;;;;;;;;;;;;;;;;5014896;28;19914;-19
2023/03/02 04:12:28;;;;;;;;;;;;;;;;;;5015171;28;20329;-18
2023/03/02 04:14:54;;;;;;;;;;;;;;;;;;5013519;28;19920;-19
2023/03/02 04:17:20;;;;;;;;;;;;;;;;;;5014503;28;19910;-19
2023/03/02 04:19:46;;;;;;;;;;;;;;;;;;5014596;28;19910;-19
2023/03/02 04:22:14;;;;;;;;;;;;;;;;;;5014453;28;20400;-18
2023/03/02 04:24:39;;;;;;;;;;;;;;;;;;5014512;28;19910;-19
2023/03/02 04:27:05;;;;;;;;;;;;;;;;;;5015324;28;19909;-19
2023/03/02 04:29:31;;;;;;;;;;;;;;;;;;5018264;28;19909;-19
2023/03/02 04:31:57;;;;;;;;;;;;;;;;;;5017848;28;19920;-18
2023/03/02 04:34:26;;;;;;;;;;;;;;;;;;5018353;28;20295;-19
2023/03/02 04:36:52;;;;;;;;;;;;;;;;;;5017783;28;19921;-18
2023/03/02 04:39:18;;;;;;;;;;;;;;;;;;5017750;28;19917;-19
2023/03/02 04:41:44;;;;;;;;;;;;;;;;;;5018135;28;20008;-19
2023/03/02 04:44:10;;;;;;;;;;;;;;;;;;5017869;28;19917;-20
2023/03/02 04:46:36;;;;;;;;;;;;;;;;;;5017812;28;19910;-19
2023/03/02 04:49:03;;;;;;;;;;;;;;;;;;5017516;28;20024;-19
2023/03/02 04:51:29;;;;;;;;;;;;;;;;;;5017394;28;20355;-18
2023/03/02 04:53:55;;;;;;;;;;;;;;;;;;5017245;28;19910;-19
2023/03/02 04:56:20;;;;;;;;;;;;;;;;;;5017297;28;19971;-18
2023/03/02 04:58:46;;;;;;;;;;;;;;;;;;5017623;28;19960;-19
2023/03/02 05:03:48;;;;;;;;;;;;;;;;;;5161877;23;19925;-23
2023/03/02 05:06:14;;;;;;;;;;;;;;;;;;5016835;28;19914;-23
2023/03/02 05:08:40;;;;;;;;;;;;;;;;;;5017076;28;19913;-24
2023/03/02 05:11:06;;;;;;;;;;;;;;;;;;5016723;28;19909;-24
2023/03/02 05:13:32;;;;;;;;;;;;;;;;;;5016665;28;19909;-23
2023/03/02 05:15:58;;;;;;;;;;;;;;;;;;5016571;28;20016;-24
2023/03/02 05:18:24;;;;;;;;;;;;;;;;;;5016869;28;20368;-24
2023/03/02 05:20:50;;;;;;;;;;;;;;;;;;5016524;28;19909;-24
2023/03/02 05:23:22;;;;;;;;;;;;;;;;;;5015378;28;19909;-25
2023/03/02 05:25:48;;;;;;;;;;;;;;;;;;5016521;28;20340;-25
2023/03/02 05:28:14;;;;;;;;;;;;;;;;;;5016154;28;20001;-25
2023/03/02 05:30:40;;;;;;;;;;;;;;;;;;5016105;28;20303;-24
2023/03/02 05:33:06;;;;;;;;;;;;;;;;;;5014901;28;19921;-25
2023/03/02 05:35:32;;;;;;;;;;;;;;;;;;5016065;28;20281;-25
2023/03/02 05:37:58;;;;;;;;;;;;;;;;;;5015867;28;19932;-25
2023/03/02 05:40:24;;;;;;;;;;;;;;;;;;5015956;28;19913;-25
2023/03/02 05:42:50;;;;;;;;;;;;;;;;;;5016010;28;19920;-26
2023/03/02 05:45:16;;;;;;;;;;;;;;;;;;5015877;28;20027;-24
2023/03/02 05:47:42;;;;;;;;;;;;;;;;;;5014737;28;19918;-26
2023/03/02 05:50:08;;;;;;;;;;;;;;;;;;5015627;28;20186;-23
2023/03/02 05:52:34;;;;;;;;;;;;;;;;;;5015860;28;19916;-24
2023/03/02 05:55:00;;;;;;;;;;;;;;;;;;5015705;28;19920;-24
2023/03/02 05:57:26;;;;;;;;;;;;;;;;;;5015578;28;19921;-24
2023/03/02 05:59:52;;;;;;;;;;;;;;;;;;5015950;28;19910;-24
2023/03/02 06:02:18;;;;;;;;;;;;;;;;;;5015094;28;19988;-24
2023/03/02 06:04:44;;;;;;;;;;;;;;;;;;5015480;28;19956;-24
2023/03/02 06:07:10;;;;;;;;;;;;;;;;;;5015627;28;19909;-24
2023/03/02 06:09:36;;;;;;;;;;;;;;;;;;5015467;28;19995;-25
2023/03/02 06:12:02;;;;;;;;;;;;;;;;;;5015229;28;20045;-24
2023/03/02 06:14:28;;;;;;;;;;;;;;;;;;5015253;28;19913;-24
2023/03/02 06:16:54;;;;;;;;;;;;;;;;;;5015621;28;19917;-25
2023/03/02 06:19:20;;;;;;;;;;;;;;;;;;5015363;28;20012;-24
2023/03/02 06:21:46;;;;;;;;;;;;;;;;;;5014297;28;19945;-24
2023/03/02 06:24:12;;;;;;;;;;;;;;;;;;5015200;28;19913;-24
2023/03/02 06:26:38;;;;;;;;;;;;;;;;;;5015382;28;19910;-24
2023/03/02 06:29:04;;;;;;;;;;;;;;;;;;5015100;28;19928;-23
2023/03/02 06:31:30;;;;;;;;;;;;;;;;;;5015298;28;20281;-24
2023/03/02 06:33:56;;;;;;;;;;;;;;;;;;5014673;28;19910;-24
2023/03/02 06:36:22;;;;;;;;;;;;;;;;;;5015207;28;19910;-24
2023/03/02 06:38:48;;;;;;;;;;;;;;;;;;5014746;28;19970;-24
2023/03/02 06:41:14;;;;;;;;;;;;;;;;;;5014853;28;19924;-24
2023/03/02 06:43:40;;;;;;;;;;;;;;;;;;5014538;28;19920;-24
2023/03/02 06:46:06;;;;;;;;;;;;;;;;;;5014840;28;19921;-24
2023/03/02 06:48:32;;;;;;;;;;;;;;;;;;5014454;28;20201;-24
2023/03/02 06:50:58;;;;;;;;;;;;;;;;;;5013875;28;19909;-23
2023/03/02 06:53:24;;;;;;;;;;;;;;;;;;5014539;28;19962;-23
2023/03/02 06:55:50;;;;;;;;;;;;;;;;;;5014968;28;19952;-23
2023/03/02 06:58:16;;;;;;;;;;;;;;;;;;5014667;28;19910;-23
2023/03/02 07:00:42;;;;;;;;;;;;;;;;;;5014519;28;20422;-23
2023/03/02 07:03:08;;;;;;;;;;;;;;;;;;5014155;28;19929;-24
2023/03/02 07:05:35;;;;;;;;;;;;;;;;;;5014777;28;20376;-23
2023/03/02 07:08:01;;;;;;;;;;;;;;;;;;5013433;28;19909;-24
2023/03/02 07:10:27;;;;;;;;;;;;;;;;;;5014596;28;19917;-24
2023/03/02 07:12:53;;;;;;;;;;;;;;;;;;5014198;28;19932;-24
2023/03/02 07:15:19;;;;;;;;;;;;;;;;;;5013969;28;19913;-25
2023/03/02 07:17:45;;;;;;;;;;;;;;;;;;5013798;28;19968;-24
2023/03/02 07:20:11;;;;;;;;;;;;;;;;;;5013915;28;19975;-28
2023/03/02 07:22:37;;;;;;;;;;;;;;;;;;5013641;28;19909;-24
2023/03/02 07:25:03;;;;;;;;;;;;;;;;;;5014151;28;19921;-24
2023/03/02 07:27:29;;;;;;;;;;;;;;;;;;5012545;28;19909;-24
2023/03/02 07:29:55;;;;;;;;;;;;;;;;;;5012735;28;20352;-24
2023/03/02 07:32:21;;;;;;;;;;;;;;;;;;5012299;28;19928;-24
2023/03/02 07:34:47;;;;;;;;;;;;;;;;;;5013808;28;20248;-24
2023/03/02 07:37:13;;;;;;;;;;;;;;;;;;5013646;28;20229;-24
2023/03/02 07:39:39;;;;;;;;;;;;;;;;;;5014208;28;19940;-24
2023/03/02 07:42:07;;;;;;;;;;;;;;;;;;5014326;28;19909;-24
2023/03/02 07:44:33;;;;;;;;;;;;;;;;;;5014405;28;19909;-28
2023/03/02 07:46:59;;;;;;;;;;;;;;;;;;5014132;28;20330;-24
2023/03/02 07:49:25;;;;;;;;;;;;;;;;;;5014194;28;20340;-24
2023/03/02 07:51:51;;;;;;;;;;;;;;;;;;5013743;28;19921;-24
2023/03/02 07:54:17;;;;;;;;;;;;;;;;;;5013891;28;20011;-25
2023/03/02 07:56:43;;;;;;;;;;;;;;;;;;5014470;28;19940;-24
2023/03/02 07:59:09;;;;;;;;;;;;;;;;;;5014102;28;19996;-24
2023/03/02 08:01:35;;;;;;;;;;;;;;;;;;5014200;28;19918;-24
2023/03/02 08:04:01;;;;;;;;;;;;;;;;;;5017553;28;19921;-24
2023/03/02 08:06:27;;;;;;;;;;;;;;;;;;5017891;28;19910;-25
2023/03/02 08:08:53;;;;;;;;;;;;;;;;;;5017776;28;19915;-24
2023/03/02 08:11:19;;;;;;;;;;;;;;;;;;5017634;28;19916;-25
2023/03/02 08:13:45;;;;;;;;;;;;;;;;;;5017715;28;19921;-24
2023/03/02 08:16:11;;;;;;;;;;;;;;;;;;5017655;28;20296;-24
2023/03/02 08:18:37;;;;;;;;;;;;;;;;;;5017366;28;19917;-24
2023/03/02 08:21:03;;;;;;;;;;;;;;;;;;5017426;28;19909;-24
2023/03/02 08:23:29;;;;;;;;;;;;;;;;;;5017254;28;19916;-25
2023/03/02 08:25:55;;;;;;;;;;;;;;;;;;5017650;28;19917;-25
2023/03/02 08:28:21;;;;;;;;;;;;;;;;;;5018246;28;19959;-24
2023/03/02 08:30:47;;;;;;;;;;;;;;;;;;5017326;28;19910;-25
2023/03/02 08:33:13;;;;;;;;;;;;;;;;;;5017339;28;20030;-25
2023/03/02 08:35:38;;;;;;;;;;;;;;;;;;5017378;28;19936;-25
2023/03/02 08:38:04;;;;;;;;;;;;;;;;;;5018079;28;19972;-24
2023/03/02 08:40:30;;;;;;;;;;;;;;;;;;5017527;28;19910;-25
2023/03/02 08:42:57;;;;;;;;;;;;;;;;;;5016389;28;19920;-24
2023/03/02 08:45:23;;;;;;;;;;;;;;;;;;5017539;28;20305;-25
2023/03/02 08:47:49;;;;;;;;;;;;;;;;;;5017349;28;19915;-26
2023/03/02 08:50:15;;;;;;;;;;;;;;;;;;5017236;28;20278;-25
2023/03/02 08:52:42;;;;;;;;;;;;;;;;;;5017271;28;20000;-25
2023/03/02 08:55:08;;;;;;;;;;;;;;;;;;5017262;28;19961;-25
2023/03/02 08:57:34;;;;;;;;;;;;;;;;;;5016794;28;19909;-25
2023/03/02 09:00:00;;;;;;;;;;;;;;;;;;5016877;28;19996;-25
2023/03/02 09:02:26;;;;;;;;;;;;;;;;;;5016595;28;19913;-25
2023/03/02 09:04:52;;;;;;;;;;;;;;;;;;5016932;28;19917;-25
2023/03/02 09:07:18;;;;;;;;;;;;;;;;;;5016959;28;19957;-25
2023/03/02 09:09:44;;;;;;;;;;;;;;;;;;5017031;28;19937;-26
2023/03/02 09:12:10;;;;;;;;;;;;;;;;;;5016571;28;19909;-25
2023/03/02 09:14:36;;;;;;;;;;;;;;;;;;5015143;28;19913;-25
2023/03/02 09:17:02;;;;;;;;;;;;;;;;;;5016432;28;19917;-23
2023/03/02 09:19:28;;;;;;;;;;;;;;;;;;5016257;28;19909;-25
2023/03/02 09:21:54;;;;;;;;;;;;;;;;;;5015084;28;19924;-26
2023/03/02 09:24:20;;;;;;;;;;;;;;;;;;5015362;28;19910;-26
2023/03/02 09:26:46;;;;;;;;;;;;;;;;;;5016449;28;20065;-26
2023/03/02 09:29:12;;;;;;;;;;;;;;;;;;5016549;28;19968;-25
2023/03/02 09:31:38;;;;;;;;;;;;;;;;;;5016382;28;20008;-26
2023/03/02 09:34:04;;;;;;;;;;;;;;;;;;5016140;28;20004;-25
2023/03/02 09:36:31;;;;;;;;;;;;;;;;;;5015424;28;19921;-26
2023/03/02 09:38:57;;;;;;;;;;;;;;;;;;5016270;28;19944;-26
2023/03/02 09:41:23;;;;;;;;;;;;;;;;;;5016504;28;19951;-25
2023/03/02 09:43:49;;;;;;;;;;;;;;;;;;5016152;28;19909;-25
2023/03/02 09:46:15;;;;;;;;;;;;;;;;;;5015549;28;19913;-25
2023/03/02 09:48:41;;;;;;;;;;;;;;;;;;5015092;28;20312;-25
2023/03/02 09:51:07;;;;;;;;;;;;;;;;;;5015509;28;19916;-25
2023/03/02 09:53:33;;;;;;;;;;;;;;;;;;5015139;28;19928;-25
2023/03/02 09:56:00;;;;;;;;;;;;;;;;;;5015408;28;19913;-25
2023/03/02 09:58:26;;;;;;;;;;;;;;;;;;5015304;28;20364;-26
2023/03/02 10:00:52;;;;;;;;;;;;;;;;;;5015323;28;19981;-26
2023/03/02 10:03:18;;;;;;;;;;;;;;;;;;5014869;28;20325;-26
2023/03/02 10:05:44;;;;;;;;;;;;;;;;;;5015274;28;19959;-26
2023/03/02 10:08:10;;;;;;;;;;;;;;;;;;5015400;28;19909;-25
2023/03/02 10:10:36;;;;;;;;;;;;;;;;;;5015088;28;20264;-25
2023/03/02 10:13:02;;;;;;;;;;;;;;;;;;5014987;28;20340;-25
2023/03/02 10:15:28;;;;;;;;;;;;;;;;;;5014904;28;19960;-25
2023/03/02 10:17:54;;;;;;;;;;;;;;;;;;5015188;28;20312;-25
2023/03/02 10:20:20;;;;;;;;;;;;;;;;;;5014847;28;20272;-25
2023/03/02 10:22:46;;;;;;;;;;;;;;;;;;5015018;28;19936;-25
2023/03/02 10:25:12;;;;;;;;;;;;;;;;;;5014337;28;19917;-25
2023/03/02 10:27:38;;;;;;;;;;;;;;;;;;5015194;28;19910;-25
2023/03/02 10:30:05;;;;;;;;;;;;;;;;;;5014309;28;19941;-25
2023/03/02 10:32:31;;;;;;;;;;;;;;;;;;5015453;28;20233;-25
2023/03/02 10:34:57;;;;;;;;;;;;;;;;;;5014977;28;19921;-25
2023/03/02 10:37:24;;;;;;;;;;;;;;;;;;5015071;28;19960;-24
2023/03/02 10:39:50;;;;;;;;;;;;;;;;;;5015455;28;20331;-25
2023/03/02 10:42:16;;;;;;;;;;;;;;;;;;5014967;28;20235;-24
2023/03/02 10:44:42;;;;;;;;;;;;;;;;;;5015047;28;19996;-24
2023/03/02 10:47:08;;;;;;;;;;;;;;;;;;5015234;28;20008;-24
2023/03/02 10:49:34;;;;;;;;;;;;;;;;;;5015004;28;19909;-24
2023/03/02 10:52:00;;;;;;;;;;;;;;;;;;5014674;28;20252;-24
2023/03/02 10:54:27;;;;;;;;;;;;;;;;;;5014661;28;19920;-24
2023/03/02 10:56:53;;;;;;;;;;;;;;;;;;5014681;28;19981;-23
2023/03/02 10:59:19;;;;;;;;;;;;;;;;;;5014954;28;19974;-24
2023/03/02 11:01:45;;;;;;;;;;;;;;;;;;5014400;28;19914;-24
2023/03/02 11:04:11;;;;;;;;;;;;;;;;;;5014731;28;20063;-24
2023/03/02 11:06:37;;;;;;;;;;;;;;;;;;5014777;28;19910;-24
2023/03/02 11:09:03;;;;;;;;;;;;;;;;;;5014914;28;19909;-24
2023/03/02 11:11:29;;;;;;;;;;;;;;;;;;5014645;28;20007;-24
2023/03/02 11:13:55;;;;;;;;;;;;;;;;;;5014398;28;20011;-24
2023/03/02 11:16:21;;;;;;;;;;;;;;;;;;5014779;28;20392;-24
2023/03/02 11:18:47;;;;;;;;;;;;;;;;;;5014510;28;19952;-25
2023/03/02 11:21:13;;;;;;;;;;;;;;;;;;5014928;28;20355;-25
2023/03/02 11:23:39;;;;;;;;;;;;;;;;;;5014348;28;19972;-25
2023/03/02 11:26:05;;;;;;;;;;;;;;;;;;5014801;28;19913;-25
2023/03/02 11:28:31;;;;;;;;;;;;;;;;;;5014860;28;19920;-25
2023/03/02 11:30:57;;;;;;;;;;;;;;;;;;5014270;28;20384;-25
2023/03/02 11:33:23;;;;;;;;;;;;;;;;;;5014500;28;20016;-25
2023/03/02 11:35:49;;;;;;;;;;;;;;;;;;5014690;28;19960;-25
2023/03/02 11:38:15;;;;;;;;;;;;;;;;;;5018248;28;19944;-25
2023/03/02 11:40:41;;;;;;;;;;;;;;;;;;5017324;28;19916;-25
2023/03/02 11:43:07;;;;;;;;;;;;;;;;;;5018251;28;19909;-25
2023/03/02 11:45:33;;;;;;;;;;;;;;;;;;5018479;28;19909;-25
2023/03/02 11:47:59;;;;;;;;;;;;;;;;;;5018558;28;19963;-26
2023/03/02 11:50:25;;;;;;;;;;;;;;;;;;5018461;28;19933;-25
2023/03/02 11:52:51;;;;;;;;;;;;;;;;;;5018102;28;19916;-25
2023/03/02 11:55:17;;;;;;;;;;;;;;;;;;5017973;28;19913;-25
2023/03/02 11:57:47;;;;;;;;;;;;;;;;;;5018366;28;19988;-25
2023/03/02 12:00:13;;;;;;;;;;;;;;;;;;5017765;28;19909;-25
2023/03/02 12:02:39;;;;;;;;;;;;;;;;;;5017073;28;19917;-25
2023/03/02 12:05:05;;;;;;;;;;;;;;;;;;5017688;28;19913;-25
2023/03/02 12:07:31;;;;;;;;;;;;;;;;;;5017636;28;20312;-25
2023/03/02 12:09:57;;;;;;;;;;;;;;;;;;5017609;28;20225;-25
2023/03/02 12:12:23;;;;;;;;;;;;;;;;;;5017293;28;19909;-25
2023/03/02 12:14:49;;;;;;;;;;;;;;;;;;5017544;28;20322;-25
2023/03/02 12:17:15;;;;;;;;;;;;;;;;;;5017064;28;19914;-25
2023/03/02 12:19:41;;;;;;;;;;;;;;;;;;5016084;28;20309;-25
2023/03/02 12:22:09;;;;;;;;;;;;;;;;;;5017595;28;19920;-25
2023/03/02 12:24:35;;;;;;;;;;;;;;;;;;5017449;28;20252;-25
2023/03/02 12:27:01;;;;;;;;;;;;;;;;;;5017580;28;19913;-25
2023/03/02 12:29:27;;;;;;;;;;;;;;;;;;5017304;28;20366;-25
2023/03/02 12:31:53;;;;;;;;;;;;;;;;;;5016340;28;19921;-25
2023/03/02 12:34:19;;;;;;;;;;;;;;;;;;5017461;28;19913;-25
2023/03/02 12:36:45;;;;;;;;;;;;;;;;;;5017606;28;19913;-25
2023/03/02 12:39:11;;;;;;;;;;;;;;;;;;5016397;28;19909;-25
2023/03/02 12:41:37;;;;;;;;;;;;;;;;;;5017893;28;19910;-25
2023/03/02 12:44:03;;;;;;;;;;;;;;;;;;5016993;28;20325;-25
2023/03/02 12:46:29;;;;;;;;;;;;;;;;;;5016967;28;19916;-25
2023/03/02 12:48:55;;;;;;;;;;;;;;;;;;5016219;28;19975;-25
2023/03/02 12:51:21;;;;;;;;;;;;;;;;;;5016832;28;20008;-25
2023/03/02 12:53:50;;;;;;;;;;;;;;;;;;5016711;28;19909;-25
2023/03/02 12:56:16;;;;;;;;;;;;;;;;;;5016614;28;20375;-25
2023/03/02 12:58:42;;;;;;;;;;;;;;;;;;5016507;28;19910;-24
2023/03/02 13:01:08;;;;;;;;;;;;;;;;;;5016830;28;19935;-32
2023/03/02 13:03:34;;;;;;;;;;;;;;;;;;5016210;28;19928;-25
2023/03/02 13:06:00;;;;;;;;;;;;;;;;;;5016412;28;19932;-25
2023/03/02 13:08:27;;;;;;;;;;;;;;;;;;5016667;28;19917;-25
2023/03/02 13:10:53;;;;;;;;;;;;;;;;;;5017942;28;19920;-25
2023/03/02 13:13:19;;;;;;;;;;;;;;;;;;5016546;28;20038;-25
2023/03/02 13:15:45;;;;;;;;;;;;;;;;;;5016324;28;20357;-25
2023/03/02 13:18:11;;;;;;;;;;;;;;;;;;5016867;28;19984;-25
2023/03/02 13:20:37;;;;;;;;;;;;;;;;;;5016622;28;19917;-25
2023/03/02 13:23:03;;;;;;;;;;;;;;;;;;5016288;28;20309;-25
2023/03/02 13:25:29;;;;;;;;;;;;;;;;;;5016323;28;19971;-25
2023/03/02 13:27:55;;;;;;;;;;;;;;;;;;5016247;28;19984;-25
2023/03/02 13:30:21;;;;;;;;;;;;;;;;;;5016120;28;19909;-25
2023/03/02 13:32:47;;;;;;;;;;;;;;;;;;5016062;28;19919;-25
2023/03/02 13:35:13;;;;;;;;;;;;;;;;;;5016058;28;20018;-25
2023/03/02 13:37:42;;;;;;;;;;;;;;;;;;5016088;28;19909;-25
2023/03/02 13:40:08;;;;;;;;;;;;;;;;;;5015791;28;20311;-25
2023/03/02 13:42:35;;;;;;;;;;;;;;;;;;5015620;28;19917;-25
2023/03/02 13:45:01;;;;;;;;;;;;;;;;;;5015839;28;19909;-25
2023/03/02 13:47:26;;;;;;;;;;;;;;;;;;5015921;28;20289;-25
2023/03/02 13:49:52;;;;;;;;;;;;;;;;;;5015731;28;20005;-25
2023/03/02 13:52:18;;;;;;;;;;;;;;;;;;5015869;28;19910;-25
2023/03/02 13:54:44;;;;;;;;;;;;;;;;;;5015972;28;20004;-25
2023/03/02 13:57:10;;;;;;;;;;;;;;;;;;5015690;28;20260;-25
2023/03/02 13:59:37;;;;;;;;;;;;;;;;;;5015498;28;20324;-25
2023/03/02 14:02:03;;;;;;;;;;;;;;;;;;5015027;28;19948;-23
2023/03/02 14:04:29;;;;;;;;;;;;;;;;;;5015472;28;19921;-24
2023/03/02 14:06:55;;;;;;;;;;;;;;;;;;5015832;28;20474;-24
2023/03/02 14:09:21;;;;;;;;;;;;;;;;;;5014612;28;19909;-24
2023/03/02 14:11:47;;;;;;;;;;;;;;;;;;5015528;28;19917;-24
2023/03/02 14:14:12;;;;;;;;;;;;;;;;;;5015199;28;19920;-24
2023/03/02 14:16:38;;;;;;;;;;;;;;;;;;5015352;28;19941;-24
2023/03/02 14:19:04;;;;;;;;;;;;;;;;;;5013949;28;20257;-24
2023/03/02 14:21:30;;;;;;;;;;;;;;;;;;5015148;28;19964;-24
2023/03/02 14:23:57;;;;;;;;;;;;;;;;;;5015343;28;20000;-24
2023/03/02 14:26:23;;;;;;;;;;;;;;;;;;5015316;28;20293;-24
2023/03/02 14:28:49;;;;;;;;;;;;;;;;;;5015628;28;20108;-24
2023/03/02 14:31:17;;;;;;;;;;;;;;;;;;5015417;28;19936;-24
2023/03/02 14:33:43;;;;;;;;;;;;;;;;;;5015336;28;19989;-24
2023/03/02 14:36:09;;;;;;;;;;;;;;;;;;5015256;28;19953;-24
2023/03/02 14:38:35;;;;;;;;;;;;;;;;;;5015279;28;20331;-24
2023/03/02 14:41:01;;;;;;;;;;;;;;;;;;5015442;28;19909;-25
2023/03/02 14:43:29;;;;;;;;;;;;;;;;;;5015057;28;19909;-25
2023/03/02 14:45:55;;;;;;;;;;;;;;;;;;5015174;28;20200;-25
2023/03/02 14:48:21;;;;;;;;;;;;;;;;;;5014693;28;19910;-25
2023/03/02 14:50:47;;;;;;;;;;;;;;;;;;5014664;28;19917;-25
2023/03/02 14:53:13;;;;;;;;;;;;;;;;;;5014537;28;19917;-25
2023/03/02 14:55:39;;;;;;;;;;;;;;;;;;5014244;28;19914;-25
2023/03/02 14:58:05;;;;;;;;;;;;;;;;;;5014580;28;19913;-26
2023/03/02 15:00:31;;;;;;;;;;;;;;;;;;5014555;28;19916;-25
2023/03/02 15:02:57;;;;;;;;;;;;;;;;;;5014456;28;19921;-25
2023/03/02 15:05:23;;;;;;;;;;;;;;;;;;5014424;28;19921;-25
2023/03/02 15:07:52;;;;;;;;;;;;;;;;;;5014567;28;19909;-25
2023/03/02 15:10:17;;;;;;;;;;;;;;;;;;5014319;28;20277;-25
2023/03/02 15:12:43;;;;;;;;;;;;;;;;;;5012916;28;19921;-25
2023/03/02 15:15:09;;;;;;;;;;;;;;;;;;5014403;28;20340;-25
2023/03/02 15:17:35;;;;;;;;;;;;;;;;;;5014655;28;19992;-25
2023/03/02 15:20:01;;;;;;;;;;;;;;;;;;5014292;28;19992;-25
2023/03/02 15:22:27;;;;;;;;;;;;;;;;;;5014102;28;19910;-25
2023/03/02 15:24:53;;;;;;;;;;;;;;;;;;5014190;28;20259;-25
2023/03/02 15:27:21;;;;;;;;;;;;;;;;;;5014133;28;20272;-25
2023/03/02 15:29:47;;;;;;;;;;;;;;;;;;5013931;28;20320;-25
2023/03/02 15:32:13;;;;;;;;;;;;;;;;;;5014091;28;19937;-25
2023/03/02 15:34:39;;;;;;;;;;;;;;;;;;5014170;28;19914;-25
2023/03/02 15:37:05;;;;;;;;;;;;;;;;;;5013101;28;19913;-25
2023/03/02 15:39:32;;;;;;;;;;;;;;;;;;5014022;28;19960;-25
2023/03/02 15:41:58;;;;;;;;;;;;;;;;;;5015125;28;19910;-25
2023/03/02 15:44:24;;;;;;;;;;;;;;;;;;5014425;28;20056;-25
2023/03/02 15:46:50;;;;;;;;;;;;;;;;;;5012923;28;19913;-25
2023/03/02 15:49:21;;;;;;;;;;;;;;;;;;5012655;28;19916;-25
2023/03/02 15:51:47;;;;;;;;;;;;;;;;;;5013967;28;19920;-25
2023/03/02 15:54:13;;;;;;;;;;;;;;;;;;5014080;28;19988;-24
2023/03/02 15:56:39;;;;;;;;;;;;;;;;;;5013989;28;19909;-25
2023/03/02 15:59:05;;;;;;;;;;;;;;;;;;5013951;28;19978;-25
2023/03/02 16:01:32;;;;;;;;;;;;;;;;;;5013632;28;20255;-25
2023/03/02 16:03:58;;;;;;;;;;;;;;;;;;5013465;28;19937;-24
2023/03/02 16:06:26;;;;;;;;;;;;;;;;;;5013737;28;19909;-24
2023/03/02 16:08:52;;;;;;;;;;;;;;;;;;5013629;28;19956;-24
2023/03/02 16:11:22;;;;;;;;;;;;;;;;;;5012542;28;19935;-25
2023/03/02 16:13:48;;;;;;;;;;;;;;;;;;5013201;28;19971;-25
2023/03/02 16:16:14;;;;;;;;;;;;;;;;;;5012856;28;19922;-24
2023/03/02 16:18:40;;;;;;;;;;;;;;;;;;5013000;28;19909;-24
2023/03/02 16:21:06;;;;;;;;;;;;;;;;;;5013369;28;19932;-25
2023/03/02 16:23:31;;;;;;;;;;;;;;;;;;5014480;28;19924;-25
2023/03/02 16:25:57;;;;;;;;;;;;;;;;;;5016628;28;20405;-25
2023/03/02 16:28:23;;;;;;;;;;;;;;;;;;5015477;28;19909;-25
2023/03/02 16:30:50;;;;;;;;;;;;;;;;;;5016561;28;19909;-25
2023/03/02 16:33:16;;;;;;;;;;;;;;;;;;5016344;28;20233;-25
2023/03/02 16:35:42;;;;;;;;;;;;;;;;;;5016809;28;19913;-25
2023/03/02 16:38:08;;;;;;;;;;;;;;;;;;5016773;28;20229;-25
2023/03/02 16:40:34;;;;;;;;;;;;;;;;;;5017092;28;19909;-25